CDT,Max TemperatureF,Mean TemperatureF,Min TemperatureF,Max Dew PointF,MeanDew PointF,Min DewpointF,Max Humidity, Mean Humidity, Min Humidity, Max Sea Level PressureIn, Mean Sea Level PressureIn, Min Sea Level PressureIn, Max VisibilityMiles, Mean VisibilityMiles, Min VisibilityMiles, Max Wind SpeedMPH, Mean Wind SpeedMPH, Max Gust SpeedMPH,PrecipitationIn, CloudCover, Events, WindDirDegrees
2012-3-1,56,43,30,34,29,25,85,60,35,29.93,29.81,29.62,10,10,10,17,8,23,0.00,0,,200
2012-3-2,55,45,34,47,36,31,89,75,60,29.79,29.55,29.32,10,9,2,31,12,39,0.30,4,Rain-Thunderstorm,301
2012-3-3,37,33,29,29,24,21,82,68,54,29.94,29.88,29.79,10,10,10,24,12,31,0.00,6,,282
2012-3-4,39,31,22,29,26,18,92,72,52,30.10,29.94,29.89,10,5,0,20,8,29,0.21,6,Fog-Snow,313
2012-3-5,42,28,13,27,22,13,92,73,53,30.44,30.30,30.08,10,10,7,25,10,35,0.00,0,,233
2012-3-6,73,55,37,38,32,25,64,44,24,30.19,30.04,29.93,10,10,10,37,21,45,0.00,0,,180
2012-3-7,71,63,55,52,44,33,63,53,43,30.01,29.95,29.88,10,10,10,35,23,45,T,4,Rain,182
2012-3-8,65,49,32,52,34,24,92,69,45,30.41,30.14,29.88,10,10,4,26,13,37,0.17,4,Rain,308
2012-3-9,49,41,32,26,19,13,70,48,25,30.58,30.51,30.41,10,10,10,20,10,23,0.00,0,,341
2012-3-10,63,46,29,29,23,16,58,41,23,30.50,30.38,30.27,10,10,10,21,12,24,0.00,0,,171
2012-3-11,68,52,36,52,39,27,70,54,37,30.27,30.12,29.95,10,10,4,26,14,35,0.09,4,Rain,160
2012-3-12,79,65,50,57,52,44,93,62,30,29.96,29.87,29.75,10,10,5,29,14,38,T,4,Rain,193
2012-3-13,79,59,39,52,45,39,100,64,28,30.12,30.05,29.98,10,6,0,17,4,23,0.00,0,Fog,181
2012-3-14,83,71,58,61,58,54,87,65,43,30.06,29.99,29.92,10,10,9,22,14,30,0.00,1,,191
2012-3-15,83,71,59,63,59,56,90,67,43,30.06,30.02,29.96,10,10,10,18,9,25,0.12,2,Rain-Thunderstorm,222
2012-3-16,79,68,56,60,56,52,86,64,42,30.09,30.04,30.01,10,10,10,22,9,28,0.00,2,,167
2012-3-17,79,70,60,63,58,53,100,77,54,30.09,30.04,29.95,10,7,0,29,10,38,0.02,4,Fog-Rain-Thunderstorm,168
2012-3-18,80,69,58,65,58,50,84,72,60,30.07,29.99,29.94,10,10,2,25,13,29,0.34,1,Rain-Thunderstorm,183
2012-3-19,81,74,66,61,59,51,81,65,49,30.00,29.92,29.84,10,10,10,31,16,40,T,2,,165
2012-3-20,82,74,65,56,52,46,73,51,28,29.98,29.93,29.88,10,10,10,36,16,47,0.00,0,,160
2012-3-21,82,73,63,56,55,52,78,59,39,30.05,29.99,29.95,10,10,10,28,14,36,0.00,2,,146
2012-3-22,73,65,57,63,59,54,93,71,49,30.06,29.99,29.96,10,9,5,21,11,28,0.21,7,Rain,149
2012-3-23,69,58,47,57,51,45,100,78,56,29.98,29.91,29.79,10,5,0,23,4,29,0.01,4,Fog-Rain,166
2012-3-24,74,61,47,53,49,44,93,70,46,29.95,29.86,29.79,10,10,8,14,4,17,0.00,2,,336
2012-3-25,77,66,55,56,53,50,93,68,43,30.06,30.02,29.96,10,9,6,15,6,20,0.00,5,,343
2012-3-26,60,54,48,53,39,32,93,67,40,30.27,30.19,30.07,10,10,8,22,15,28,0.00,3,,81
2012-3-27,75,61,47,54,43,35,63,50,37,30.15,30.02,29.88,10,10,10,26,16,33,0.00,1,,166
2012-3-28,79,65,51,53,42,35,72,47,22,30.01,29.96,29.87,10,10,10,20,7,23,0.00,1,,301
2012-3-29,58,52,45,51,44,36,93,72,50,30.08,29.99,29.87,10,10,5,18,9,23,0.21,3,Rain,83
2012-3-30,77,63,49,61,52,45,80,63,46,29.87,29.77,29.72,10,10,9,21,12,25,0.00,2,,285
2012-3-31,71,58,44,52,45,38,86,64,41,29.97,29.89,29.78,10,8,5,16,8,21,0.00,4,,97